Time;durP1;ratioP1;P1;durP2;ratioP2;P2;SDS_P1;SDS_P2;PMS_P1;PMS_P2;Temp;Humidity;BMP_temperature;BMP_pressure;BME280_temperature;BME280_humidity;BME280_pressure;Samples;Min_cycle;Max_cycle;Signal;HPM_P1;HPM_P2
2022/03/19 00:00:21;;;;;;;;;;;;;;;;;;5030942;28;889;-67
2022/03/19 00:02:47;;;;;;;;;;;;;;;;;;5030715;28;1395;-67
2022/03/19 00:05:16;;;;;;;;;;;;;;;;;;5030959;28;917;-67
2022/03/19 00:07:42;;;;;;;;;;;;;;;;;;5030612;28;1079;-68
2022/03/19 00:10:09;;;;;;;;;;;;;;;;;;5040342;28;1539;-67
2022/03/19 00:12:35;;;;;;;;;;;;;;;;;;5050453;28;2062;-67
2022/03/19 00:15:01;;;;;;;;;;;;;;;;;;5050377;28;1083;-67
2022/03/19 00:17:27;;;;;;;;;;;;;;;;;;5050574;28;1119;-67
2022/03/19 00:19:54;;;;;;;;;;;;;;;;;;5050667;28;826;-67
2022/03/19 00:22:22;;;;;;;;;;;;;;;;;;5050608;28;1335;-67
2022/03/19 00:24:48;;;;;;;;;;;;;;;;;;5051121;28;1086;-67
2022/03/19 00:27:14;;;;;;;;;;;;;;;;;;5051471;28;794;-67
2022/03/19 00:29:41;;;;;;;;;;;;;;;;;;5032778;28;1579;-67
2022/03/19 00:32:07;;;;;;;;;;;;;;;;;;5032189;28;1914;-68
2022/03/19 00:34:34;;;;;;;;;;;;;;;;;;5049904;28;1253;-67
2022/03/19 00:37:00;;;;;;;;;;;;;;;;;;5051126;28;1086;-67
2022/03/19 00:39:27;;;;;;;;;;;;;;;;;;5055012;28;759;-67
2022/03/19 00:41:54;;;;;;;;;;;;;;;;;;5054413;28;1129;-67
2022/03/19 00:44:21;;;;;;;;;;;;;;;;;;5054248;28;1404;-67
2022/03/19 00:46:48;;;;;;;;;;;;;;;;;;5054014;28;845;-68
2022/03/19 00:49:15;;;;;;;;;;;;;;;;;;5054256;28;881;-67
2022/03/19 00:51:42;;;;;;;;;;;;;;;;;;5053901;28;1070;-67
2022/03/19 00:54:09;;;;;;;;;;;;;;;;;;5053654;28;1981;-67
2022/03/19 00:56:36;;;;;;;;;;;;;;;;;;5053664;28;1055;-67
2022/03/19 00:59:03;;;;;;;;;;;;;;;;;;5053984;28;968;-67
2022/03/19 01:01:29;;;;;;;;;;;;;;;;;;5053882;28;778;-67
2022/03/19 01:03:55;;;;;;;;;;;;;;;;;;5053699;28;1306;-67
2022/03/19 01:06:21;;;;;;;;;;;;;;;;;;5053791;28;778;-67
2022/03/19 01:08:48;;;;;;;;;;;;;;;;;;5053490;28;1110;-66
2022/03/19 01:11:14;;;;;;;;;;;;;;;;;;5053850;28;881;-67
2022/03/19 01:13:41;;;;;;;;;;;;;;;;;;5053492;28;1969;-67
2022/03/19 01:16:08;;;;;;;;;;;;;;;;;;5035488;28;1015;-67
2022/03/19 01:18:35;;;;;;;;;;;;;;;;;;5053543;28;996;-67
2022/03/19 01:21:01;;;;;;;;;;;;;;;;;;5053566;28;909;-67
2022/03/19 01:23:27;;;;;;;;;;;;;;;;;;5053296;28;1304;-67
2022/03/19 01:25:54;;;;;;;;;;;;;;;;;;5053398;28;1007;-67
2022/03/19 01:28:20;;;;;;;;;;;;;;;;;;5053217;28;1095;-67
2022/03/19 01:30:48;;;;;;;;;;;;;;;;;;5053402;28;881;-67
2022/03/19 01:33:14;;;;;;;;;;;;;;;;;;5053157;28;1932;-67
2022/03/19 01:35:40;;;;;;;;;;;;;;;;;;5053451;28;1037;-67
2022/03/19 01:38:06;;;;;;;;;;;;;;;;;;5053038;28;1086;-67
2022/03/19 01:40:33;;;;;;;;;;;;;;;;;;5053052;28;864;-66
2022/03/19 01:43:00;;;;;;;;;;;;;;;;;;5052791;28;1351;-67
2022/03/19 01:45:26;;;;;;;;;;;;;;;;;;5052966;28;1083;-67
2022/03/19 01:47:54;;;;;;;;;;;;;;;;;;5053029;28;1095;-67
2022/03/19 01:50:21;;;;;;;;;;;;;;;;;;5052390;28;1118;-67
2022/03/19 01:52:47;;;;;;;;;;;;;;;;;;5052446;28;1973;-67
2022/03/19 01:55:14;;;;;;;;;;;;;;;;;;5052804;28;953;-67
2022/03/19 01:57:41;;;;;;;;;;;;;;;;;;5052538;28;1079;-67
2022/03/19 02:00:10;;;;;;;;;;;;;;;;;;5052500;28;884;-67
2022/03/19 02:02:39;;;;;;;;;;;;;;;;;;5052701;28;1306;-67
2022/03/19 02:05:07;;;;;;;;;;;;;;;;;;5052770;28;1083;-67
2022/03/19 02:07:33;;;;;;;;;;;;;;;;;;5052510;28;916;-67
2022/03/19 02:10:00;;;;;;;;;;;;;;;;;;5052736;28;1048;-67
2022/03/19 02:12:26;;;;;;;;;;;;;;;;;;5051834;28;1891;-67
2022/03/19 02:14:52;;;;;;;;;;;;;;;;;;5052727;28;756;-67
2022/03/19 02:17:19;;;;;;;;;;;;;;;;;;5052198;28;1087;-67
2022/03/19 02:19:48;;;;;;;;;;;;;;;;;;5052289;28;837;-67
2022/03/19 02:22:15;;;;;;;;;;;;;;;;;;5052086;28;1289;-67
2022/03/19 02:27:26;;;;;;;;;;;;;;;;;;5051967;28;1019;-67
2022/03/19 02:29:53;;;;;;;;;;;;;;;;;;5052342;28;967;-67
2022/03/19 02:32:19;;;;;;;;;;;;;;;;;;5051718;28;1988;-68
2022/03/19 02:34:45;;;;;;;;;;;;;;;;;;5052099;28;1074;-68
2022/03/19 02:37:11;;;;;;;;;;;;;;;;;;5052029;28;876;-67
2022/03/19 02:39:38;;;;;;;;;;;;;;;;;;5051889;28;1159;-67
2022/03/19 02:42:06;;;;;;;;;;;;;;;;;;5068559;22;3761;-67
2022/03/19 02:44:32;;;;;;;;;;;;;;;;;;5051393;28;1057;-67
2022/03/19 02:46:59;;;;;;;;;;;;;;;;;;5051308;28;1186;-67
2022/03/19 02:49:26;;;;;;;;;;;;;;;;;;5051719;28;687;-67
2022/03/19 02:51:53;;;;;;;;;;;;;;;;;;5037389;28;1358;-67
2022/03/19 02:54:21;;;;;;;;;;;;;;;;;;5031575;28;1910;-67
2022/03/19 02:56:48;;;;;;;;;;;;;;;;;;5031523;28;920;-67
2022/03/19 02:59:17;;;;;;;;;;;;;;;;;;5013699;28;1273;-66
2022/03/19 03:01:43;;;;;;;;;;;;;;;;;;5030446;28;1310;-68
2022/03/19 03:04:09;;;;;;;;;;;;;;;;;;5031259;28;979;-67
2022/03/19 03:06:36;;;;;;;;;;;;;;;;;;5031135;28;1135;-67
2022/03/19 03:09:03;;;;;;;;;;;;;;;;;;5031545;28;842;-67
2022/03/19 03:11:29;;;;;;;;;;;;;;;;;;5031248;28;1302;-67
2022/03/19 03:13:55;;;;;;;;;;;;;;;;;;5031560;28;1966;-68
2022/03/19 03:16:23;;;;;;;;;;;;;;;;;;5031231;28;890;-67
2022/03/19 03:18:49;;;;;;;;;;;;;;;;;;5031187;28;1067;-67
2022/03/19 03:21:15;;;;;;;;;;;;;;;;;;5030839;28;1414;-67
2022/03/19 03:23:41;;;;;;;;;;;;;;;;;;5031155;28;1087;-66
2022/03/19 03:26:07;;;;;;;;;;;;;;;;;;5030798;28;843;-66
2022/03/19 03:28:34;;;;;;;;;;;;;;;;;;5031302;28;1059;-67
2022/03/19 03:31:00;;;;;;;;;;;;;;;;;;5030853;28;1435;-67
2022/03/19 03:33:33;;;;;;;;;;;;;;;;;;5108406;27;1485;-66
2022/03/19 03:35:59;;;;;;;;;;;;;;;;;;5108324;28;894;-66
2022/03/19 03:38:26;;;;;;;;;;;;;;;;;;5107819;28;1181;-66
2022/03/19 03:40:52;;;;;;;;;;;;;;;;;;5107807;28;1398;-69
2022/03/19 03:43:19;;;;;;;;;;;;;;;;;;5108024;28;1001;-68
2022/03/19 03:45:45;;;;;;;;;;;;;;;;;;5108228;28;1072;-68
2022/03/19 03:48:11;;;;;;;;;;;;;;;;;;5107777;28;1089;-68
2022/03/19 03:50:39;;;;;;;;;;;;;;;;;;5107969;28;1390;-68
2022/03/19 03:53:05;;;;;;;;;;;;;;;;;;5107946;28;1921;-69
2022/03/19 03:55:31;;;;;;;;;;;;;;;;;;5107960;28;1112;-68
2022/03/19 03:57:58;;;;;;;;;;;;;;;;;;5107679;28;1135;-68
2022/03/19 04:00:24;;;;;;;;;;;;;;;;;;5107454;28;1324;-67
2022/03/19 04:02:50;;;;;;;;;;;;;;;;;;5108007;28;740;-66
2022/03/19 04:05:16;;;;;;;;;;;;;;;;;;5107690;28;1057;-65
2022/03/19 04:07:44;;;;;;;;;;;;;;;;;;5107725;28;1128;-67
2022/03/19 04:10:10;;;;;;;;;;;;;;;;;;5107781;28;1306;-66
2022/03/19 04:12:36;;;;;;;;;;;;;;;;;;5107678;28;1914;-67
2022/03/19 04:15:03;;;;;;;;;;;;;;;;;;5107693;28;1112;-67
2022/03/19 04:17:29;;;;;;;;;;;;;;;;;;5107408;28;1112;-68
2022/03/19 04:19:55;;;;;;;;;;;;;;;;;;5107647;28;918;-65
2022/03/19 04:22:22;;;;;;;;;;;;;;;;;;5091838;28;1628;-67
2022/03/19 04:24:50;;;;;;;;;;;;;;;;;;5087423;28;1065;-67
2022/03/19 04:27:16;;;;;;;;;;;;;;;;;;5087201;28;847;-66
2022/03/19 04:29:42;;;;;;;;;;;;;;;;;;5087133;28;721;-67
2022/03/19 04:32:08;;;;;;;;;;;;;;;;;;5095977;28;1975;-67
2022/03/19 04:34:35;;;;;;;;;;;;;;;;;;5107380;28;1172;-67
2022/03/19 04:37:01;;;;;;;;;;;;;;;;;;5106847;28;1005;-67
2022/03/19 04:39:27;;;;;;;;;;;;;;;;;;5106961;28;1073;-67
2022/03/19 04:41:56;;;;;;;;;;;;;;;;;;5106968;28;1310;-68
2022/03/19 04:44:22;;;;;;;;;;;;;;;;;;5096155;28;990;-67
2022/03/19 04:46:48;;;;;;;;;;;;;;;;;;5093193;28;752;-67
2022/03/19 04:49:14;;;;;;;;;;;;;;;;;;5093336;28;870;-67
2022/03/19 04:51:41;;;;;;;;;;;;;;;;;;5093146;28;1910;-67
2022/03/19 04:54:07;;;;;;;;;;;;;;;;;;5093056;28;1057;-68
2022/03/19 04:56:33;;;;;;;;;;;;;;;;;;5092944;28;943;-67
2022/03/19 04:59:02;;;;;;;;;;;;;;;;;;5093073;28;865;-67
2022/03/19 05:01:28;;;;;;;;;;;;;;;;;;5092854;28;1284;-67
2022/03/19 05:03:54;;;;;;;;;;;;;;;;;;5093149;28;1001;-67
2022/03/19 05:06:21;;;;;;;;;;;;;;;;;;5097973;28;2059;-67
2022/03/19 05:08:47;;;;;;;;;;;;;;;;;;5110808;28;1429;-67
2022/03/19 05:11:32;;;;;;;;;;;;;;;;;;5112676;28;1497;-68
2022/03/19 05:14:01;;;;;;;;;;;;;;;;;;5113326;28;1995;-66
2022/03/19 05:16:27;;;;;;;;;;;;;;;;;;5108065;28;1558;-67
2022/03/19 05:18:54;;;;;;;;;;;;;;;;;;5104127;28;1416;-67
2022/03/19 05:21:20;;;;;;;;;;;;;;;;;;5092726;28;1393;-67
2022/03/19 05:23:46;;;;;;;;;;;;;;;;;;5108655;28;1439;-67
2022/03/19 05:26:12;;;;;;;;;;;;;;;;;;5106436;28;2054;-68
2022/03/19 05:28:38;;;;;;;;;;;;;;;;;;5092254;28;935;-67
2022/03/19 05:31:06;;;;;;;;;;;;;;;;;;5110537;28;2146;-66
2022/03/19 05:36:16;;;;;;;;;;;;;;;;;;5107764;28;1579;-67
2022/03/19 05:38:42;;;;;;;;;;;;;;;;;;5108347;28;1583;-69
2022/03/19 05:41:08;;;;;;;;;;;;;;;;;;5093268;28;1608;-68
2022/03/19 05:43:35;;;;;;;;;;;;;;;;;;5099313;28;1618;-68
2022/03/19 05:46:01;;;;;;;;;;;;;;;;;;5112221;28;1120;-70
2022/03/19 05:48:28;;;;;;;;;;;;;;;;;;5096666;28;2241;-69
2022/03/19 05:50:54;;;;;;;;;;;;;;;;;;5103061;28;1599;-68
2022/03/19 05:53:21;;;;;;;;;;;;;;;;;;5095735;28;1910;-69
2022/03/19 05:55:47;;;;;;;;;;;;;;;;;;5108290;28;1245;-68
2022/03/19 05:58:13;;;;;;;;;;;;;;;;;;5102474;28;1201;-70
2022/03/19 06:00:40;;;;;;;;;;;;;;;;;;5099279;28;1478;-68
2022/03/19 06:03:06;;;;;;;;;;;;;;;;;;5112086;27;898;-69
2022/03/19 06:05:35;;;;;;;;;;;;;;;;;;5111946;28;791;-68
2022/03/19 06:08:01;;;;;;;;;;;;;;;;;;5111716;28;1116;-68
2022/03/19 06:10:27;;;;;;;;;;;;;;;;;;5111661;28;1392;-68
2022/03/19 06:12:54;;;;;;;;;;;;;;;;;;5111867;28;1918;-69
2022/03/19 06:15:20;;;;;;;;;;;;;;;;;;5112080;27;886;-68
2022/03/19 06:17:46;;;;;;;;;;;;;;;;;;5111817;28;1128;-68
2022/03/19 06:20:12;;;;;;;;;;;;;;;;;;5111555;28;1318;-66
2022/03/19 06:22:41;;;;;;;;;;;;;;;;;;5111619;28;997;-68
2022/03/19 06:25:07;;;;;;;;;;;;;;;;;;5099386;28;1508;-71
2022/03/19 06:27:34;;;;;;;;;;;;;;;;;;5099014;28;1650;-70
2022/03/19 06:30:00;;;;;;;;;;;;;;;;;;5109784;28;1583;-70
2022/03/19 06:32:26;;;;;;;;;;;;;;;;;;5108112;28;1910;-69
2022/03/19 06:34:52;;;;;;;;;;;;;;;;;;5094822;28;1527;-70
2022/03/19 06:37:21;;;;;;;;;;;;;;;;;;5089351;28;777;-69
2022/03/19 06:39:49;;;;;;;;;;;;;;;;;;5102738;28;1619;-68
2022/03/19 06:42:15;;;;;;;;;;;;;;;;;;5109068;28;1300;-68
2022/03/19 06:44:43;;;;;;;;;;;;;;;;;;5101406;28;1583;-69
2022/03/19 06:47:09;;;;;;;;;;;;;;;;;;5088718;28;910;-70
2022/03/19 06:49:35;;;;;;;;;;;;;;;;;;5101681;28;1552;-69
2022/03/19 06:52:01;;;;;;;;;;;;;;;;;;5108976;28;1477;-69
2022/03/19 06:54:27;;;;;;;;;;;;;;;;;;5096391;28;1914;-70
2022/03/19 06:56:55;;;;;;;;;;;;;;;;;;5088400;28;919;-69
2022/03/19 06:59:21;;;;;;;;;;;;;;;;;;5097221;28;1535;-71
2022/03/19 07:01:47;;;;;;;;;;;;;;;;;;5089220;28;1579;-69
2022/03/19 07:04:14;;;;;;;;;;;;;;;;;;5100333;28;1761;-68
2022/03/19 07:06:40;;;;;;;;;;;;;;;;;;5099553;28;1626;-69
2022/03/19 07:09:07;;;;;;;;;;;;;;;;;;5087923;28;698;-69
2022/03/19 07:11:35;;;;;;;;;;;;;;;;;;5099144;28;1500;-69
2022/03/19 07:14:04;;;;;;;;;;;;;;;;;;5098940;28;1921;-69
2022/03/19 07:16:31;;;;;;;;;;;;;;;;;;5105277;28;1582;-69
2022/03/19 07:18:57;;;;;;;;;;;;;;;;;;5108389;28;1081;-69
2022/03/19 07:21:23;;;;;;;;;;;;;;;;;;5099007;28;1550;-70
2022/03/19 07:23:50;;;;;;;;;;;;;;;;;;5099225;28;1662;-70
2022/03/19 07:26:16;;;;;;;;;;;;;;;;;;5090268;28;1121;-69
2022/03/19 07:28:43;;;;;;;;;;;;;;;;;;5090284;28;788;-70
2022/03/19 07:31:10;;;;;;;;;;;;;;;;;;5090083;28;1532;-69
2022/03/19 07:33:36;;;;;;;;;;;;;;;;;;5090030;28;1978;-70
2022/03/19 07:36:03;;;;;;;;;;;;;;;;;;5090071;28;1085;-69
2022/03/19 07:38:30;;;;;;;;;;;;;;;;;;5089811;28;835;-69
2022/03/19 07:43:41;;;;;;;;;;;;;;;;;;5089858;28;776;-70
2022/03/19 07:46:07;;;;;;;;;;;;;;;;;;5090008;28;978;-69
2022/03/19 07:48:35;;;;;;;;;;;;;;;;;;5090037;28;800;-70
2022/03/19 07:51:01;;;;;;;;;;;;;;;;;;5089875;28;1313;-69
2022/03/19 07:53:27;;;;;;;;;;;;;;;;;;5089885;28;1914;-71
2022/03/19 07:55:54;;;;;;;;;;;;;;;;;;5089737;28;947;-70
2022/03/19 07:58:21;;;;;;;;;;;;;;;;;;5089583;28;804;-70
2022/03/19 08:00:47;;;;;;;;;;;;;;;;;;5090807;28;1497;-70
2022/03/19 08:03:13;;;;;;;;;;;;;;;;;;5090051;28;871;-70
2022/03/19 08:05:42;;;;;;;;;;;;;;;;;;5090191;28;1152;-70
2022/03/19 08:08:08;;;;;;;;;;;;;;;;;;5089292;28;1068;-69
2022/03/19 08:10:35;;;;;;;;;;;;;;;;;;5088704;28;1301;-71
2022/03/19 08:13:03;;;;;;;;;;;;;;;;;;5105277;28;1917;-70
2022/03/19 08:15:29;;;;;;;;;;;;;;;;;;5110234;28;783;-69
2022/03/19 08:17:55;;;;;;;;;;;;;;;;;;5110094;28;978;-70
2022/03/19 08:20:22;;;;;;;;;;;;;;;;;;5113927;28;1355;-70
2022/03/19 08:22:49;;;;;;;;;;;;;;;;;;5110128;28;1501;-70
2022/03/19 08:25:15;;;;;;;;;;;;;;;;;;5113844;28;950;-70
2022/03/19 08:27:42;;;;;;;;;;;;;;;;;;5109550;28;1519;-70
2022/03/19 08:30:08;;;;;;;;;;;;;;;;;;5112246;27;1607;-71
2022/03/19 08:32:35;;;;;;;;;;;;;;;;;;5113151;28;1388;-70
2022/03/19 08:35:01;;;;;;;;;;;;;;;;;;5114018;28;2031;-70
2022/03/19 08:37:28;;;;;;;;;;;;;;;;;;5113292;28;808;-68
2022/03/19 08:42:39;;;;;;;;;;;;;;;;;;5114488;28;1211;-69
2022/03/19 08:45:06;;;;;;;;;;;;;;;;;;5112239;28;1119;-70
2022/03/19 08:47:32;;;;;;;;;;;;;;;;;;5112354;28;1315;-70
2022/03/19 08:49:59;;;;;;;;;;;;;;;;;;5114040;28;970;-70
2022/03/19 08:52:26;;;;;;;;;;;;;;;;;;5113669;28;1436;-70
2022/03/19 08:54:52;;;;;;;;;;;;;;;;;;5101591;28;1918;-69
2022/03/19 08:57:20;;;;;;;;;;;;;;;;;;5092906;28;887;-68
2022/03/19 08:59:46;;;;;;;;;;;;;;;;;;5102634;28;1130;-70
2022/03/19 09:02:12;;;;;;;;;;;;;;;;;;5092710;28;1395;-70
2022/03/19 09:04:39;;;;;;;;;;;;;;;;;;5092705;28;1171;-69
2022/03/19 09:07:05;;;;;;;;;;;;;;;;;;5092548;28;1049;-71
2022/03/19 09:09:31;;;;;;;;;;;;;;;;;;5091655;28;1357;-71
2022/03/19 09:11:57;;;;;;;;;;;;;;;;;;5093157;28;1310;-69
2022/03/19 09:14:26;;;;;;;;;;;;;;;;;;5092940;28;2273;-69
2022/03/19 09:16:53;;;;;;;;;;;;;;;;;;5092282;28;1054;-69
2022/03/19 09:19:19;;;;;;;;;;;;;;;;;;5093017;28;1021;-69
2022/03/19 09:21:45;;;;;;;;;;;;;;;;;;5104646;28;1399;-70
2022/03/19 09:24:15;;;;;;;;;;;;;;;;;;5113233;28;1021;-70
2022/03/19 09:26:41;;;;;;;;;;;;;;;;;;5112444;28;1069;-71
2022/03/19 09:29:08;;;;;;;;;;;;;;;;;;5113141;28;931;-70
2022/03/19 09:31:35;;;;;;;;;;;;;;;;;;5112770;28;1312;-71
2022/03/19 09:34:02;;;;;;;;;;;;;;;;;;5113291;28;1923;-70
2022/03/19 09:36:28;;;;;;;;;;;;;;;;;;5112413;28;1085;-70
2022/03/19 09:38:54;;;;;;;;;;;;;;;;;;5112939;28;983;-71
2022/03/19 09:41:21;;;;;;;;;;;;;;;;;;5112811;28;1297;-70
2022/03/19 09:43:47;;;;;;;;;;;;;;;;;;5112560;28;858;-71
2022/03/19 09:46:13;;;;;;;;;;;;;;;;;;5112288;28;1010;-69
2022/03/19 09:48:41;;;;;;;;;;;;;;;;;;5112774;28;1135;-70
2022/03/19 09:51:08;;;;;;;;;;;;;;;;;;5112574;28;1301;-70
2022/03/19 09:53:34;;;;;;;;;;;;;;;;;;5112586;28;1917;-71
2022/03/19 09:56:03;;;;;;;;;;;;;;;;;;5112786;28;854;-70
2022/03/19 09:58:29;;;;;;;;;;;;;;;;;;5112378;28;803;-70
2022/03/19 10:00:56;;;;;;;;;;;;;;;;;;5112584;28;1250;-70
2022/03/19 10:03:23;;;;;;;;;;;;;;;;;;5112392;28;1309;-71
2022/03/19 10:08:37;;;;;;;;;;;;;;;;;;5112161;28;799;-70
2022/03/19 10:11:03;;;;;;;;;;;;;;;;;;5112266;28;1386;-71
2022/03/19 10:13:29;;;;;;;;;;;;;;;;;;5111574;28;1979;-68
2022/03/19 10:15:55;;;;;;;;;;;;;;;;;;5112184;28;784;-70
2022/03/19 10:18:26;;;;;;;;;;;;;;;;;;5111931;28;1105;-70
2022/03/19 10:20:54;;;;;;;;;;;;;;;;;;5111750;28;1319;-69
2022/03/19 10:23:29;;;;;;;;;;;;;;;;;;5111478;28;938;-71
2022/03/19 10:25:55;;;;;;;;;;;;;;;;;;5111938;28;1069;-71
2022/03/19 10:28:28;;;;;;;;;;;;;;;;;;5102243;28;1512;-70
2022/03/19 10:30:54;;;;;;;;;;;;;;;;;;5091498;28;1356;-71
2022/03/19 10:33:24;;;;;;;;;;;;;;;;;;5091049;28;1909;-71
2022/03/19 10:35:50;;;;;;;;;;;;;;;;;;5091334;28;1705;-70
2022/03/19 10:38:19;;;;;;;;;;;;;;;;;;5090830;28;1132;-68
2022/03/19 10:40:46;;;;;;;;;;;;;;;;;;5091219;28;1393;-72
2022/03/19 10:43:13;;;;;;;;;;;;;;;;;;5090954;28;796;-70
2022/03/19 10:45:43;;;;;;;;;;;;;;;;;;5091212;28;1089;-71
2022/03/19 10:48:11;;;;;;;;;;;;;;;;;;5089533;28;1369;-69
2022/03/19 10:50:38;;;;;;;;;;;;;;;;;;5090891;28;1364;-69
2022/03/19 10:53:05;;;;;;;;;;;;;;;;;;5090933;28;772;-70
2022/03/19 10:55:32;;;;;;;;;;;;;;;;;;5091000;28;1981;-69
2022/03/19 10:57:58;;;;;;;;;;;;;;;;;;5090347;28;654;-69
2022/03/19 11:00:25;;;;;;;;;;;;;;;;;;5090674;28;1349;-70
2022/03/19 11:02:54;;;;;;;;;;;;;;;;;;5090998;28;658;-70
2022/03/19 11:05:21;;;;;;;;;;;;;;;;;;5090810;28;1124;-70
2022/03/19 11:07:47;;;;;;;;;;;;;;;;;;5094667;28;1941;-70
2022/03/19 11:10:13;;;;;;;;;;;;;;;;;;5096068;28;1406;-68
2022/03/19 11:12:43;;;;;;;;;;;;;;;;;;5110854;28;1376;-70
2022/03/19 11:15:10;;;;;;;;;;;;;;;;;;5110448;28;1922;-70
2022/03/19 11:17:37;;;;;;;;;;;;;;;;;;5095245;28;1472;-69
2022/03/19 11:20:04;;;;;;;;;;;;;;;;;;5098914;28;1587;-70
2022/03/19 11:22:39;;;;;;;;;;;;;;;;;;5097161;28;1393;-70
2022/03/19 11:25:06;;;;;;;;;;;;;;;;;;5091663;28;1604;-70
2022/03/19 11:27:34;;;;;;;;;;;;;;;;;;5102856;28;1458;-71
2022/03/19 11:30:03;;;;;;;;;;;;;;;;;;5099621;28;1559;-71
2022/03/19 11:32:30;;;;;;;;;;;;;;;;;;5090313;28;1282;-70
2022/03/19 11:34:59;;;;;;;;;;;;;;;;;;5091508;28;1975;-68
2022/03/19 11:37:26;;;;;;;;;;;;;;;;;;5098167;28;1580;-70
2022/03/19 11:40:02;;;;;;;;;;;;;;;;;;5108852;28;1583;-70
2022/03/19 11:42:29;;;;;;;;;;;;;;;;;;5107153;28;1658;-68
2022/03/19 11:44:55;;;;;;;;;;;;;;;;;;5110715;28;1143;-70
2022/03/19 11:47:25;;;;;;;;;;;;;;;;;;5108428;28;1665;-68
2022/03/19 11:49:53;;;;;;;;;;;;;;;;;;5098819;28;1858;-70
2022/03/19 11:52:23;;;;;;;;;;;;;;;;;;5110360;28;1304;-69
2022/03/19 11:55:03;;;;;;;;;;;;;;;;;;5098477;28;1975;-69
2022/03/19 11:57:30;;;;;;;;;;;;;;;;;;5094156;28;847;-67
2022/03/19 11:59:57;;;;;;;;;;;;;;;;;;5094446;28;799;-69
2022/03/19 12:02:26;;;;;;;;;;;;;;;;;;5094033;28;1295;-69
2022/03/19 12:04:53;;;;;;;;;;;;;;;;;;5094252;28;1073;-70
2022/03/19 12:07:35;;;;;;;;;;;;;;;;;;5111898;28;1397;-69
2022/03/19 12:10:01;;;;;;;;;;;;;;;;;;5112019;28;1652;-70
2022/03/19 12:12:28;;;;;;;;;;;;;;;;;;5114492;28;1288;-70
2022/03/19 12:14:55;;;;;;;;;;;;;;;;;;5099719;28;1976;-70
2022/03/19 12:17:23;;;;;;;;;;;;;;;;;;5094423;28;1639;-70
2022/03/19 12:19:54;;;;;;;;;;;;;;;;;;5112580;28;1579;-69
2022/03/19 12:22:29;;;;;;;;;;;;;;;;;;5095031;28;1443;-70
2022/03/19 12:24:56;;;;;;;;;;;;;;;;;;5097443;28;1610;-69
2022/03/19 12:27:23;;;;;;;;;;;;;;;;;;5101002;28;1583;-69
2022/03/19 12:29:49;;;;;;;;;;;;;;;;;;5110741;28;1622;-69
2022/03/19 12:32:16;;;;;;;;;;;;;;;;;;5112375;28;1559;-70
2022/03/19 12:34:44;;;;;;;;;;;;;;;;;;5105712;28;1926;-70
2022/03/19 12:37:11;;;;;;;;;;;;;;;;;;5094496;28;1620;-70
2022/03/19 12:39:39;;;;;;;;;;;;;;;;;;5103031;28;1552;-70
2022/03/19 12:42:05;;;;;;;;;;;;;;;;;;5111856;28;1599;-69
2022/03/19 12:44:36;;;;;;;;;;;;;;;;;;5113697;28;1311;-69
2022/03/19 12:47:03;;;;;;;;;;;;;;;;;;5110208;28;1579;-69
2022/03/19 12:49:31;;;;;;;;;;;;;;;;;;5107333;28;1762;-70
2022/03/19 12:51:57;;;;;;;;;;;;;;;;;;5101336;28;1587;-70
2022/03/19 12:54:26;;;;;;;;;;;;;;;;;;5105076;28;1918;-68
2022/03/19 12:56:52;;;;;;;;;;;;;;;;;;5098883;28;1543;-69
2022/03/19 12:59:20;;;;;;;;;;;;;;;;;;5109757;28;1622;-68
2022/03/19 13:01:46;;;;;;;;;;;;;;;;;;5113223;28;1422;-69
2022/03/19 13:04:18;;;;;;;;;;;;;;;;;;5111159;28;1575;-69
2022/03/19 13:06:44;;;;;;;;;;;;;;;;;;5099311;28;1595;-69
2022/03/19 13:09:11;;;;;;;;;;;;;;;;;;5107797;28;1602;-69
2022/03/19 13:11:42;;;;;;;;;;;;;;;;;;5101489;28;1649;-69
2022/03/19 13:14:08;;;;;;;;;;;;;;;;;;5111449;28;1975;-67
2022/03/19 13:16:35;;;;;;;;;;;;;;;;;;5101142;28;1651;-68
2022/03/19 13:19:01;;;;;;;;;;;;;;;;;;5098678;28;1615;-69
2022/03/19 13:21:28;;;;;;;;;;;;;;;;;;5100866;28;1584;-69
2022/03/19 13:23:55;;;;;;;;;;;;;;;;;;5101290;28;1584;-69
2022/03/19 13:26:21;;;;;;;;;;;;;;;;;;5112609;28;1069;-69
2022/03/19 13:29:01;;;;;;;;;;;;;;;;;;5111135;28;1476;-69
2022/03/19 13:31:28;;;;;;;;;;;;;;;;;;5112258;28;1524;-70
2022/03/19 13:33:59;;;;;;;;;;;;;;;;;;5112815;28;680;-69
2022/03/19 13:36:26;;;;;;;;;;;;;;;;;;5111778;28;2046;-70
2022/03/19 13:38:53;;;;;;;;;;;;;;;;;;5112497;28;808;-69
2022/03/19 13:41:21;;;;;;;;;;;;;;;;;;5112289;28;1302;-70
2022/03/19 13:43:47;;;;;;;;;;;;;;;;;;5112512;28;1113;-70
2022/03/19 13:46:15;;;;;;;;;;;;;;;;;;5112120;28;1113;-69
2022/03/19 13:48:41;;;;;;;;;;;;;;;;;;5112130;28;1013;-70
2022/03/19 13:51:09;;;;;;;;;;;;;;;;;;5112099;28;1284;-70
2022/03/19 13:53:43;;;;;;;;;;;;;;;;;;5111971;28;1057;-68
2022/03/19 13:56:09;;;;;;;;;;;;;;;;;;5111478;28;1965;-68
2022/03/19 13:58:36;;;;;;;;;;;;;;;;;;5111913;28;888;-70
2022/03/19 14:01:10;;;;;;;;;;;;;;;;;;5111778;28;1382;-69
2022/03/19 14:03:40;;;;;;;;;;;;;;;;;;5111888;28;1116;-69
2022/03/19 14:06:07;;;;;;;;;;;;;;;;;;5111893;28;1084;-67
2022/03/19 14:08:33;;;;;;;;;;;;;;;;;;5111976;28;1018;-70
2022/03/19 14:10:59;;;;;;;;;;;;;;;;;;5111688;28;1372;-71
2022/03/19 14:13:35;;;;;;;;;;;;;;;;;;5111923;28;971;-71
2022/03/19 14:16:06;;;;;;;;;;;;;;;;;;5108095;28;1913;-70
2022/03/19 14:18:33;;;;;;;;;;;;;;;;;;5092559;28;1618;-70
2022/03/19 14:21:02;;;;;;;;;;;;;;;;;;5090836;28;1556;-69
2022/03/19 14:23:28;;;;;;;;;;;;;;;;;;5090270;28;1552;-67
2022/03/19 14:25:54;;;;;;;;;;;;;;;;;;5090247;28;1615;-70
2022/03/19 14:28:21;;;;;;;;;;;;;;;;;;5089810;28;1595;-69
2022/03/19 14:30:48;;;;;;;;;;;;;;;;;;5089471;28;1340;-70
2022/03/19 14:33:15;;;;;;;;;;;;;;;;;;5090565;28;1471;-68
2022/03/19 14:35:41;;;;;;;;;;;;;;;;;;5090833;28;1977;-70
2022/03/19 14:38:09;;;;;;;;;;;;;;;;;;5090110;28;1472;-70
2022/03/19 14:40:35;;;;;;;;;;;;;;;;;;5090872;28;1591;-70
2022/03/19 14:43:02;;;;;;;;;;;;;;;;;;5068351;23;3937;-70
2022/03/19 14:45:29;;;;;;;;;;;;;;;;;;5030970;28;931;-69
2022/03/19 14:47:55;;;;;;;;;;;;;;;;;;5030643;28;1584;-70
2022/03/19 14:50:22;;;;;;;;;;;;;;;;;;5031312;28;800;-70
2022/03/19 14:52:48;;;;;;;;;;;;;;;;;;5029949;28;1639;-69
2022/03/19 14:55:15;;;;;;;;;;;;;;;;;;5030674;28;1916;-70
2022/03/19 14:57:41;;;;;;;;;;;;;;;;;;5030426;28;1559;-70
2022/03/19 15:00:10;;;;;;;;;;;;;;;;;;5027017;28;1510;-71
2022/03/19 15:02:37;;;;;;;;;;;;;;;;;;4994346;28;1595;-70
2022/03/19 15:05:03;;;;;;;;;;;;;;;;;;5030410;28;1630;-70
2022/03/19 15:07:30;;;;;;;;;;;;;;;;;;5029757;28;1575;-71
2022/03/19 15:09:57;;;;;;;;;;;;;;;;;;5030451;28;1559;-70
2022/03/19 15:12:25;;;;;;;;;;;;;;;;;;5012826;28;1336;-70
2022/03/19 15:14:52;;;;;;;;;;;;;;;;;;5030247;28;1910;-70
2022/03/19 15:17:19;;;;;;;;;;;;;;;;;;5030390;28;884;-71
2022/03/19 15:19:45;;;;;;;;;;;;;;;;;;5029658;28;1730;-70
2022/03/19 15:22:11;;;;;;;;;;;;;;;;;;5030681;28;1373;-69
2022/03/19 15:24:39;;;;;;;;;;;;;;;;;;5029718;28;1513;-70
2022/03/19 15:27:05;;;;;;;;;;;;;;;;;;5029380;28;1662;-71
2022/03/19 15:29:33;;;;;;;;;;;;;;;;;;5029784;28;1635;-71
2022/03/19 15:31:59;;;;;;;;;;;;;;;;;;5030311;28;1317;-71
2022/03/19 15:34:25;;;;;;;;;;;;;;;;;;5029899;28;1595;-71
2022/03/19 15:36:51;;;;;;;;;;;;;;;;;;5029928;28;1919;-71
2022/03/19 15:39:18;;;;;;;;;;;;;;;;;;5030155;28;1646;-70
2022/03/19 15:41:45;;;;;;;;;;;;;;;;;;5029936;28;1359;-71
2022/03/19 15:44:11;;;;;;;;;;;;;;;;;;5029554;28;1669;-71
2022/03/19 15:46:39;;;;;;;;;;;;;;;;;;5029181;28;1559;-72
2022/03/19 15:49:06;;;;;;;;;;;;;;;;;;5030152;28;1579;-72
2022/03/19 15:51:32;;;;;;;;;;;;;;;;;;5029609;28;1627;-71
2022/03/19 15:53:59;;;;;;;;;;;;;;;;;;5029769;28;1670;-71
2022/03/19 15:56:26;;;;;;;;;;;;;;;;;;5029400;28;1910;-71
2022/03/19 15:58:52;;;;;;;;;;;;;;;;;;5029732;28;742;-71
2022/03/19 16:01:18;;;;;;;;;;;;;;;;;;5029594;28;1662;-70
2022/03/19 16:03:46;;;;;;;;;;;;;;;;;;5029901;28;1398;-70
2022/03/19 16:06:12;;;;;;;;;;;;;;;;;;5029576;28;1650;-70
2022/03/19 16:08:38;;;;;;;;;;;;;;;;;;5030170;28;777;-71
2022/03/19 16:11:04;;;;;;;;;;;;;;;;;;5029496;28;1591;-71
2022/03/19 16:13:30;;;;;;;;;;;;;;;;;;5029850;28;1309;-71
2022/03/19 16:15:57;;;;;;;;;;;;;;;;;;5029188;28;1970;-71
2022/03/19 16:18:23;;;;;;;;;;;;;;;;;;5029473;28;955;-71
2022/03/19 16:20:50;;;;;;;;;;;;;;;;;;5011497;28;1528;-71
2022/03/19 16:23:17;;;;;;;;;;;;;;;;;;5029678;28;1414;-70
2022/03/19 16:25:43;;;;;;;;;;;;;;;;;;5029585;28;1661;-70
2022/03/19 16:28:09;;;;;;;;;;;;;;;;;;5029331;28;959;-71
2022/03/19 16:30:35;;;;;;;;;;;;;;;;;;5029151;28;1595;-70
2022/03/19 16:33:02;;;;;;;;;;;;;;;;;;5029536;28;1399;-69
2022/03/19 16:35:29;;;;;;;;;;;;;;;;;;5029160;28;1922;-71
2022/03/19 16:37:56;;;;;;;;;;;;;;;;;;5028975;28;1548;-71
2022/03/19 16:40:22;;;;;;;;;;;;;;;;;;5031635;28;932;-71
2022/03/19 16:42:49;;;;;;;;;;;;;;;;;;5032624;28;1666;-70
2022/03/19 16:45:15;;;;;;;;;;;;;;;;;;5025980;28;1564;-69
2022/03/19 16:47:41;;;;;;;;;;;;;;;;;;5023764;28;1555;-71
2022/03/19 16:50:08;;;;;;;;;;;;;;;;;;5030901;28;1599;-69
2022/03/19 16:52:34;;;;;;;;;;;;;;;;;;5030985;28;1360;-70
2022/03/19 16:55:01;;;;;;;;;;;;;;;;;;5030005;28;1607;-69
2022/03/19 16:57:28;;;;;;;;;;;;;;;;;;5030959;28;1981;-70
2022/03/19 16:59:54;;;;;;;;;;;;;;;;;;5030692;28;1536;-71
2022/03/19 17:02:20;;;;;;;;;;;;;;;;;;5030761;28;1476;-71
2022/03/19 17:04:46;;;;;;;;;;;;;;;;;;5030715;28;1607;-70
2022/03/19 17:07:12;;;;;;;;;;;;;;;;;;5033007;28;1058;-70
2022/03/19 17:09:38;;;;;;;;;;;;;;;;;;5033416;28;1563;-70
2022/03/19 17:12:07;;;;;;;;;;;;;;;;;;5012789;28;1435;-70
2022/03/19 17:14:34;;;;;;;;;;;;;;;;;;5012188;28;1683;-70
2022/03/19 17:17:00;;;;;;;;;;;;;;;;;;5030007;28;1964;-69